sensor_id;sensor_type;location;lat;lon;timestamp;P1;durP1;ratioP1;P2;durP2;ratioP2
40955;SDS011;26687;48.254;11.454;2022-09-24T00:02:59;13.17;;;10.47;;
40955;SDS011;26687;48.254;11.454;2022-09-24T00:06:02;11.85;;;10.65;;
40955;SDS011;26687;48.254;11.454;2022-09-24T00:09:02;11.55;;;10.35;;
40955;SDS011;26687;48.254;11.454;2022-09-24T00:12:02;11.20;;;10.10;;
40955;SDS011;26687;48.254;11.454;2022-09-24T00:15:03;11.25;;;9.27;;
40955;SDS011;26687;48.254;11.454;2022-09-24T00:18:03;10.10;;;8.95;;
40955;SDS011;26687;48.254;11.454;2022-09-24T00:24:12;11.68;;;9.02;;
40955;SDS011;26687;48.254;11.454;2022-09-24T00:27:32;10.63;;;9.63;;
40955;SDS011;26687;48.254;11.454;2022-09-24T00:30:32;10.10;;;9.00;;
40955;SDS011;26687;48.254;11.454;2022-09-24T00:33:33;10.07;;;8.98;;
40955;SDS011;26687;48.254;11.454;2022-09-24T00:36:33;10.63;;;9.63;;
40955;SDS011;26687;48.254;11.454;2022-09-24T00:39:34;9.60;;;8.70;;
40955;SDS011;26687;48.254;11.454;2022-09-24T00:42:34;9.23;;;8.32;;
40955;SDS011;26687;48.254;11.454;2022-09-24T00:45:34;9.77;;;8.88;;
40955;SDS011;26687;48.254;11.454;2022-09-24T00:48:35;10.50;;;8.20;;
40955;SDS011;26687;48.254;11.454;2022-09-24T00:51:36;9.07;;;8.18;;
40955;SDS011;26687;48.254;11.454;2022-09-24T00:54:37;9.15;;;8.35;;
40955;SDS011;26687;48.254;11.454;2022-09-24T00:57:37;8.90;;;8.00;;
40955;SDS011;26687;48.254;11.454;2022-09-24T01:00:38;9.07;;;8.18;;
40955;SDS011;26687;48.254;11.454;2022-09-24T01:03:39;9.45;;;8.57;;
40955;SDS011;26687;48.254;11.454;2022-09-24T01:06:41;9.35;;;8.55;;
40955;SDS011;26687;48.254;11.454;2022-09-24T01:09:41;8.60;;;7.90;;
40955;SDS011;26687;48.254;11.454;2022-09-24T01:12:52;9.87;;;8.87;;
40955;SDS011;26687;48.254;11.454;2022-09-24T01:16:03;10.82;;;8.40;;
40955;SDS011;26687;48.254;11.454;2022-09-24T01:22:39;8.35;;;7.55;;
40955;SDS011;26687;48.254;11.454;2022-09-24T01:25:46;8.70;;;7.90;;
40955;SDS011;26687;48.254;11.454;2022-09-24T01:31:59;8.77;;;7.80;;
40955;SDS011;26687;48.254;11.454;2022-09-24T01:35:09;9.00;;;8.18;;
40955;SDS011;26687;48.254;11.454;2022-09-24T01:38:16;8.77;;;7.97;;
40955;SDS011;26687;48.254;11.454;2022-09-24T01:41:17;10.00;;;7.72;;
40955;SDS011;26687;48.254;11.454;2022-09-24T01:44:17;9.23;;;8.35;;
40955;SDS011;26687;48.254;11.454;2022-09-24T01:47:22;8.55;;;7.75;;
40955;SDS011;26687;48.254;11.454;2022-09-24T01:50:25;8.93;;;8.02;;
40955;SDS011;26687;48.254;11.454;2022-09-24T01:53:28;8.40;;;7.70;;
40955;SDS011;26687;48.254;11.454;2022-09-24T01:56:32;9.55;;;7.68;;
40955;SDS011;26687;48.254;11.454;2022-09-24T02:05:54;10.98;;;8.02;;
40955;SDS011;26687;48.254;11.454;2022-09-24T02:08:57;9.05;;;8.15;;
40955;SDS011;26687;48.254;11.454;2022-09-24T02:11:59;9.00;;;8.20;;
40955;SDS011;26687;48.254;11.454;2022-09-24T02:15:04;8.20;;;7.50;;
40955;SDS011;26687;48.254;11.454;2022-09-24T02:18:06;7.75;;;7.00;;
40955;SDS011;26687;48.254;11.454;2022-09-24T02:21:09;10.27;;;8.07;;
40955;SDS011;26687;48.254;11.454;2022-09-24T02:24:12;7.88;;;7.07;;
40955;SDS011;26687;48.254;11.454;2022-09-24T02:27:13;8.77;;;7.90;;
40955;SDS011;26687;48.254;11.454;2022-09-24T02:30:13;11.07;;;7.78;;
40955;SDS011;26687;48.254;11.454;2022-09-24T02:33:13;7.75;;;7.05;;
40955;SDS011;26687;48.254;11.454;2022-09-24T02:36:32;7.68;;;6.97;;
40955;SDS011;26687;48.254;11.454;2022-09-24T02:39:33;8.43;;;7.63;;
40955;SDS011;26687;48.254;11.454;2022-09-24T02:42:34;8.65;;;7.70;;
40955;SDS011;26687;48.254;11.454;2022-09-24T02:45:34;8.68;;;7.50;;
40955;SDS011;26687;48.254;11.454;2022-09-24T02:48:35;8.07;;;7.35;;
40955;SDS011;26687;48.254;11.454;2022-09-24T02:51:35;8.02;;;7.32;;
40955;SDS011;26687;48.254;11.454;2022-09-24T02:54:36;8.10;;;7.33;;
40955;SDS011;26687;48.254;11.454;2022-09-24T02:57:36;7.78;;;7.05;;
40955;SDS011;26687;48.254;11.454;2022-09-24T03:00:37;7.43;;;6.70;;
40955;SDS011;26687;48.254;11.454;2022-09-24T03:03:37;8.45;;;7.65;;
40955;SDS011;26687;48.254;11.454;2022-09-24T03:06:37;7.63;;;6.82;;
40955;SDS011;26687;48.254;11.454;2022-09-24T03:09:38;7.57;;;6.95;;
40955;SDS011;26687;48.254;11.454;2022-09-24T03:12:38;7.93;;;7.22;;
40955;SDS011;26687;48.254;11.454;2022-09-24T03:15:38;7.55;;;6.88;;
40955;SDS011;26687;48.254;11.454;2022-09-24T03:18:38;8.20;;;7.35;;
40955;SDS011;26687;48.254;11.454;2022-09-24T03:21:38;8.18;;;7.38;;
40955;SDS011;26687;48.254;11.454;2022-09-24T03:24:39;7.53;;;6.82;;
40955;SDS011;26687;48.254;11.454;2022-09-24T03:27:39;7.53;;;6.70;;
40955;SDS011;26687;48.254;11.454;2022-09-24T03:30:39;7.80;;;7.10;;
40955;SDS011;26687;48.254;11.454;2022-09-24T03:33:58;8.15;;;7.45;;
40955;SDS011;26687;48.254;11.454;2022-09-24T03:36:58;8.30;;;7.50;;
40955;SDS011;26687;48.254;11.454;2022-09-24T03:39:58;8.07;;;7.28;;
40955;SDS011;26687;48.254;11.454;2022-09-24T03:42:58;7.57;;;6.80;;
40955;SDS011;26687;48.254;11.454;2022-09-24T03:45:59;7.07;;;6.47;;
40955;SDS011;26687;48.254;11.454;2022-09-24T03:48:59;6.95;;;6.35;;
40955;SDS011;26687;48.254;11.454;2022-09-24T03:51:59;7.15;;;6.45;;
40955;SDS011;26687;48.254;11.454;2022-09-24T03:54:59;7.15;;;6.53;;
40955;SDS011;26687;48.254;11.454;2022-09-24T03:57:59;7.28;;;6.63;;
40955;SDS011;26687;48.254;11.454;2022-09-24T04:01:00;7.38;;;6.68;;
40955;SDS011;26687;48.254;11.454;2022-09-24T04:04:00;7.50;;;6.73;;
40955;SDS011;26687;48.254;11.454;2022-09-24T04:07:02;7.30;;;6.60;;
40955;SDS011;26687;48.254;11.454;2022-09-24T04:10:02;7.65;;;7.05;;
40955;SDS011;26687;48.254;11.454;2022-09-24T04:13:02;7.77;;;7.07;;
40955;SDS011;26687;48.254;11.454;2022-09-24T04:16:02;7.47;;;6.70;;
40955;SDS011;26687;48.254;11.454;2022-09-24T04:19:03;6.78;;;6.20;;
40955;SDS011;26687;48.254;11.454;2022-09-24T04:22:03;7.30;;;6.60;;
40955;SDS011;26687;48.254;11.454;2022-09-24T04:25:03;8.52;;;6.90;;
40955;SDS011;26687;48.254;11.454;2022-09-24T04:28:04;7.35;;;6.68;;
40955;SDS011;26687;48.254;11.454;2022-09-24T04:31:05;9.57;;;6.93;;
40955;SDS011;26687;48.254;11.454;2022-09-24T04:34:05;7.70;;;7.00;;
40955;SDS011;26687;48.254;11.454;2022-09-24T04:37:05;7.70;;;6.55;;
40955;SDS011;26687;48.254;11.454;2022-09-24T04:40:06;7.53;;;6.83;;
40955;SDS011;26687;48.254;11.454;2022-09-24T04:43:11;6.88;;;6.18;;
40955;SDS011;26687;48.254;11.454;2022-09-24T04:46:11;7.05;;;6.35;;
40955;SDS011;26687;48.254;11.454;2022-09-24T04:49:12;7.93;;;6.60;;
40955;SDS011;26687;48.254;11.454;2022-09-24T04:52:13;7.10;;;6.40;;
40955;SDS011;26687;48.254;11.454;2022-09-24T04:55:14;7.18;;;6.57;;
40955;SDS011;26687;48.254;11.454;2022-09-24T04:58:14;6.60;;;5.95;;
40955;SDS011;26687;48.254;11.454;2022-09-24T05:01:14;6.73;;;6.07;;
40955;SDS011;26687;48.254;11.454;2022-09-24T05:04:14;6.95;;;6.35;;
40955;SDS011;26687;48.254;11.454;2022-09-24T05:07:14;6.85;;;6.25;;
40955;SDS011;26687;48.254;11.454;2022-09-24T05:10:15;6.87;;;6.10;;
40955;SDS011;26687;48.254;11.454;2022-09-24T05:13:15;6.70;;;6.03;;
40955;SDS011;26687;48.254;11.454;2022-09-24T05:16:15;7.15;;;6.50;;
40955;SDS011;26687;48.254;11.454;2022-09-24T05:19:15;6.70;;;6.10;;
40955;SDS011;26687;48.254;11.454;2022-09-24T05:22:15;7.00;;;6.30;;
40955;SDS011;26687;48.254;11.454;2022-09-24T05:25:16;7.20;;;6.35;;
40955;SDS011;26687;48.254;11.454;2022-09-24T05:28:17;6.88;;;6.28;;
40955;SDS011;26687;48.254;11.454;2022-09-24T05:31:17;6.60;;;5.90;;
40955;SDS011;26687;48.254;11.454;2022-09-24T05:34:17;6.60;;;5.97;;
40955;SDS011;26687;48.254;11.454;2022-09-24T05:37:17;6.63;;;6.05;;
40955;SDS011;26687;48.254;11.454;2022-09-24T05:40:17;6.78;;;6.15;;
40955;SDS011;26687;48.254;11.454;2022-09-24T05:43:36;7.55;;;6.10;;
40955;SDS011;26687;48.254;11.454;2022-09-24T05:46:37;6.28;;;5.68;;
40955;SDS011;26687;48.254;11.454;2022-09-24T05:49:37;6.00;;;5.50;;
40955;SDS011;26687;48.254;11.454;2022-09-24T05:52:41;7.15;;;6.47;;
40955;SDS011;26687;48.254;11.454;2022-09-24T05:58:41;7.40;;;6.80;;
40955;SDS011;26687;48.254;11.454;2022-09-24T06:01:41;6.60;;;6.00;;
40955;SDS011;26687;48.254;11.454;2022-09-24T06:04:42;6.80;;;6.20;;
40955;SDS011;26687;48.254;11.454;2022-09-24T06:07:42;6.43;;;5.93;;
40955;SDS011;26687;48.254;11.454;2022-09-24T06:10:42;6.93;;;6.05;;
40955;SDS011;26687;48.254;11.454;2022-09-24T06:13:44;6.60;;;6.00;;
40955;SDS011;26687;48.254;11.454;2022-09-24T06:16:44;6.65;;;6.07;;
40955;SDS011;26687;48.254;11.454;2022-09-24T06:19:44;6.63;;;6.03;;
40955;SDS011;26687;48.254;11.454;2022-09-24T06:22:46;6.10;;;5.60;;
40955;SDS011;26687;48.254;11.454;2022-09-24T06:25:49;6.55;;;5.80;;
40955;SDS011;26687;48.254;11.454;2022-09-24T06:28:52;7.72;;;5.55;;
40955;SDS011;26687;48.254;11.454;2022-09-24T06:31:53;6.70;;;5.72;;
40955;SDS011;26687;48.254;11.454;2022-09-24T06:34:53;5.97;;;5.43;;
40955;SDS011;26687;48.254;11.454;2022-09-24T06:37:53;6.93;;;6.22;;
40955;SDS011;26687;48.254;11.454;2022-09-24T06:40:57;6.03;;;5.40;;
40955;SDS011;26687;48.254;11.454;2022-09-24T06:43:57;6.50;;;5.88;;
40955;SDS011;26687;48.254;11.454;2022-09-24T06:46:58;7.67;;;5.70;;
40955;SDS011;26687;48.254;11.454;2022-09-24T06:49:58;5.47;;;4.97;;
40955;SDS011;26687;48.254;11.454;2022-09-24T06:52:58;5.50;;;5.00;;
40955;SDS011;26687;48.254;11.454;2022-09-24T06:55:58;6.00;;;5.40;;
40955;SDS011;26687;48.254;11.454;2022-09-24T06:58:59;7.53;;;5.80;;
40955;SDS011;26687;48.254;11.454;2022-09-24T07:01:59;7.72;;;6.10;;
40955;SDS011;26687;48.254;11.454;2022-09-24T07:04:59;24.00;;;21.43;;
40955;SDS011;26687;48.254;11.454;2022-09-24T07:07:59;20.25;;;17.80;;
40955;SDS011;26687;48.254;11.454;2022-09-24T07:10:59;8.17;;;7.17;;
40955;SDS011;26687;48.254;11.454;2022-09-24T07:14:00;7.57;;;6.72;;
40955;SDS011;26687;48.254;11.454;2022-09-24T07:17:00;7.93;;;7.20;;
40955;SDS011;26687;48.254;11.454;2022-09-24T07:20:01;8.43;;;7.60;;
40955;SDS011;26687;48.254;11.454;2022-09-24T07:23:05;8.38;;;7.53;;
40955;SDS011;26687;48.254;11.454;2022-09-24T07:26:05;7.30;;;6.60;;
40955;SDS011;26687;48.254;11.454;2022-09-24T07:29:05;8.90;;;6.80;;
40955;SDS011;26687;48.254;11.454;2022-09-24T07:32:05;7.80;;;7.10;;
40955;SDS011;26687;48.254;11.454;2022-09-24T07:35:06;7.07;;;6.37;;
40955;SDS011;26687;48.254;11.454;2022-09-24T07:38:07;6.57;;;5.97;;
40955;SDS011;26687;48.254;11.454;2022-09-24T07:41:07;8.00;;;6.00;;
40955;SDS011;26687;48.254;11.454;2022-09-24T07:44:08;6.63;;;6.03;;
40955;SDS011;26687;48.254;11.454;2022-09-24T07:47:09;6.10;;;5.43;;
40955;SDS011;26687;48.254;11.454;2022-09-24T07:50:09;5.72;;;5.22;;
40955;SDS011;26687;48.254;11.454;2022-09-24T07:53:10;5.32;;;4.82;;
40955;SDS011;26687;48.254;11.454;2022-09-24T07:56:11;5.43;;;4.93;;
40955;SDS011;26687;48.254;11.454;2022-09-24T07:59:11;7.15;;;6.55;;
40955;SDS011;26687;48.254;11.454;2022-09-24T08:02:15;6.43;;;5.82;;
40955;SDS011;26687;48.254;11.454;2022-09-24T08:05:16;5.45;;;5.05;;
40955;SDS011;26687;48.254;11.454;2022-09-24T08:08:16;6.60;;;5.10;;
40955;SDS011;26687;48.254;11.454;2022-09-24T08:11:19;5.17;;;4.77;;
40955;SDS011;26687;48.254;11.454;2022-09-24T08:14:20;6.13;;;5.25;;
40955;SDS011;26687;48.254;11.454;2022-09-24T08:17:20;6.68;;;6.13;;
40955;SDS011;26687;48.254;11.454;2022-09-24T08:20:20;5.90;;;5.40;;
40955;SDS011;26687;48.254;11.454;2022-09-24T08:23:22;5.53;;;4.95;;
40955;SDS011;26687;48.254;11.454;2022-09-24T08:26:22;5.40;;;4.90;;
40955;SDS011;26687;48.254;11.454;2022-09-24T08:29:22;5.70;;;5.20;;
40955;SDS011;26687;48.254;11.454;2022-09-24T08:32:22;5.80;;;5.22;;
40955;SDS011;26687;48.254;11.454;2022-09-24T08:35:22;6.32;;;5.72;;
40955;SDS011;26687;48.254;11.454;2022-09-24T08:38:22;6.83;;;6.20;;
40955;SDS011;26687;48.254;11.454;2022-09-24T08:41:26;7.45;;;6.80;;
40955;SDS011;26687;48.254;11.454;2022-09-24T08:51:13;8.43;;;7.70;;
40955;SDS011;26687;48.254;11.454;2022-09-24T08:54:16;8.85;;;8.05;;
40955;SDS011;26687;48.254;11.454;2022-09-24T08:57:18;7.22;;;6.63;;
40955;SDS011;26687;48.254;11.454;2022-09-24T09:00:19;6.50;;;5.97;;
40955;SDS011;26687;48.254;11.454;2022-09-24T09:09:42;8.25;;;5.90;;
40955;SDS011;26687;48.254;11.454;2022-09-24T09:12:53;5.85;;;5.32;;
40955;SDS011;26687;48.254;11.454;2022-09-24T09:16:00;6.00;;;5.43;;
40955;SDS011;26687;48.254;11.454;2022-09-24T09:19:04;5.90;;;5.30;;
40955;SDS011;26687;48.254;11.454;2022-09-24T09:22:12;5.57;;;5.07;;
40955;SDS011;26687;48.254;11.454;2022-09-24T09:25:17;5.38;;;4.88;;
40955;SDS011;26687;48.254;11.454;2022-09-24T09:28:18;5.40;;;4.90;;
40955;SDS011;26687;48.254;11.454;2022-09-24T09:31:27;5.20;;;4.70;;
40955;SDS011;26687;48.254;11.454;2022-09-24T09:40:49;5.28;;;4.78;;
40955;SDS011;26687;48.254;11.454;2022-09-24T09:43:58;6.18;;;4.75;;
40955;SDS011;26687;48.254;11.454;2022-09-24T09:47:03;6.22;;;5.57;;
40955;SDS011;26687;48.254;11.454;2022-09-24T09:50:08;4.80;;;4.40;;
40955;SDS011;26687;48.254;11.454;2022-09-24T09:53:24;4.70;;;4.30;;
40955;SDS011;26687;48.254;11.454;2022-09-24T09:56:26;4.47;;;3.80;;
40955;SDS011;26687;48.254;11.454;2022-09-24T09:59:26;4.50;;;3.72;;
40955;SDS011;26687;48.254;11.454;2022-09-24T10:02:29;4.05;;;3.35;;
40955;SDS011;26687;48.254;11.454;2022-09-24T10:05:30;4.37;;;3.97;;
40955;SDS011;26687;48.254;11.454;2022-09-24T10:08:30;4.72;;;3.47;;
40955;SDS011;26687;48.254;11.454;2022-09-24T10:11:31;4.72;;;4.32;;
40955;SDS011;26687;48.254;11.454;2022-09-24T10:14:31;4.75;;;4.20;;
40955;SDS011;26687;48.254;11.454;2022-09-24T10:17:35;4.30;;;3.90;;
40955;SDS011;26687;48.254;11.454;2022-09-24T10:20:36;4.07;;;3.72;;
40955;SDS011;26687;48.254;11.454;2022-09-24T10:23:42;4.38;;;3.97;;
40955;SDS011;26687;48.254;11.454;2022-09-24T10:26:43;3.92;;;3.53;;
40955;SDS011;26687;48.254;11.454;2022-09-24T10:29:44;4.78;;;4.00;;
40955;SDS011;26687;48.254;11.454;2022-09-24T10:33:03;4.22;;;3.80;;
40955;SDS011;26687;48.254;11.454;2022-09-24T10:36:05;5.68;;;4.68;;
40955;SDS011;26687;48.254;11.454;2022-09-24T10:42:22;4.57;;;4.18;;
40955;SDS011;26687;48.254;11.454;2022-09-24T10:45:26;4.50;;;4.10;;
40955;SDS011;26687;48.254;11.454;2022-09-24T10:48:34;4.60;;;4.20;;
40955;SDS011;26687;48.254;11.454;2022-09-24T11:01:17;5.68;;;4.90;;
40955;SDS011;26687;48.254;11.454;2022-09-24T11:17:21;5.00;;;4.45;;
40955;SDS011;26687;48.254;11.454;2022-09-24T11:23:34;5.40;;;4.90;;
40955;SDS011;26687;48.254;11.454;2022-09-24T11:27:01;5.68;;;5.18;;
40955;SDS011;26687;48.254;11.454;2022-09-24T11:30:18;5.43;;;4.80;;
40955;SDS011;26687;48.254;11.454;2022-09-24T11:42:58;5.82;;;5.32;;
40955;SDS011;26687;48.254;11.454;2022-09-24T11:49:25;6.20;;;5.60;;
40955;SDS011;26687;48.254;11.454;2022-09-24T11:52:30;5.38;;;4.88;;
40955;SDS011;26687;48.254;11.454;2022-09-24T11:58:34;5.80;;;5.35;;
40955;SDS011;26687;48.254;11.454;2022-09-24T12:01:36;6.13;;;5.45;;
40955;SDS011;26687;48.254;11.454;2022-09-24T12:04:45;5.68;;;5.18;;
40955;SDS011;26687;48.254;11.454;2022-09-24T12:11:12;5.20;;;4.75;;
40955;SDS011;26687;48.254;11.454;2022-09-24T12:17:20;5.50;;;5.00;;
40955;SDS011;26687;48.254;11.454;2022-09-24T12:20:25;5.75;;;5.25;;
40955;SDS011;26687;48.254;11.454;2022-09-24T12:23:31;6.25;;;5.65;;
40955;SDS011;26687;48.254;11.454;2022-09-24T12:26:33;6.60;;;5.97;;
40955;SDS011;26687;48.254;11.454;2022-09-24T12:39:35;5.10;;;4.70;;
40955;SDS011;26687;48.254;11.454;2022-09-24T12:42:40;5.07;;;4.57;;
40955;SDS011;26687;48.254;11.454;2022-09-24T12:45:42;6.03;;;5.53;;
40955;SDS011;26687;48.254;11.454;2022-09-24T12:48:43;5.80;;;5.30;;
40955;SDS011;26687;48.254;11.454;2022-09-24T12:51:44;7.13;;;5.53;;
40955;SDS011;26687;48.254;11.454;2022-09-24T12:54:44;6.65;;;5.95;;
40955;SDS011;26687;48.254;11.454;2022-09-24T13:01:03;5.38;;;4.97;;
40955;SDS011;26687;48.254;11.454;2022-09-24T13:10:32;5.47;;;4.97;;
40955;SDS011;26687;48.254;11.454;2022-09-24T13:13:36;5.22;;;4.80;;
40955;SDS011;26687;48.254;11.454;2022-09-24T13:16:40;6.28;;;5.68;;
40955;SDS011;26687;48.254;11.454;2022-09-24T13:19:42;6.10;;;5.50;;
40955;SDS011;26687;48.254;11.454;2022-09-24T13:22:53;6.35;;;5.75;;
40955;SDS011;26687;48.254;11.454;2022-09-24T13:25:55;4.90;;;4.50;;
40955;SDS011;26687;48.254;11.454;2022-09-24T13:28:56;5.95;;;5.35;;
40955;SDS011;26687;48.254;11.454;2022-09-24T13:31:59;6.38;;;5.32;;
40955;SDS011;26687;48.254;11.454;2022-09-24T13:35:02;5.70;;;5.20;;
40955;SDS011;26687;48.254;11.454;2022-09-24T13:38:06;5.65;;;5.07;;
40955;SDS011;26687;48.254;11.454;2022-09-24T13:44:33;6.20;;;5.70;;
40955;SDS011;26687;48.254;11.454;2022-09-24T13:50:38;6.60;;;5.82;;
40955;SDS011;26687;48.254;11.454;2022-09-24T13:53:51;6.18;;;5.57;;
40955;SDS011;26687;48.254;11.454;2022-09-24T13:56:56;5.82;;;5.30;;
40955;SDS011;26687;48.254;11.454;2022-09-24T14:00:30;7.70;;;6.03;;
40955;SDS011;26687;48.254;11.454;2022-09-24T14:03:29;7.93;;;7.13;;
40955;SDS011;26687;48.254;11.454;2022-09-24T14:06:35;6.32;;;5.70;;
40955;SDS011;26687;48.254;11.454;2022-09-24T14:09:35;7.28;;;6.68;;
40955;SDS011;26687;48.254;11.454;2022-09-24T14:12:36;5.85;;;5.25;;
40955;SDS011;26687;48.254;11.454;2022-09-24T14:15:36;5.93;;;5.40;;
40955;SDS011;26687;48.254;11.454;2022-09-24T14:18:37;5.80;;;5.30;;
40955;SDS011;26687;48.254;11.454;2022-09-24T14:21:40;5.55;;;5.10;;
40955;SDS011;26687;48.254;11.454;2022-09-24T14:24:43;5.80;;;5.30;;
40955;SDS011;26687;48.254;11.454;2022-09-24T14:27:47;6.03;;;5.50;;
40955;SDS011;26687;48.254;11.454;2022-09-24T14:30:49;5.72;;;5.20;;
40955;SDS011;26687;48.254;11.454;2022-09-24T14:33:50;5.57;;;5.07;;
40955;SDS011;26687;48.254;11.454;2022-09-24T14:36:52;6.55;;;5.95;;
40955;SDS011;26687;48.254;11.454;2022-09-24T14:40:12;5.43;;;4.93;;
40955;SDS011;26687;48.254;11.454;2022-09-24T14:43:13;6.07;;;5.43;;
40955;SDS011;26687;48.254;11.454;2022-09-24T14:46:16;6.07;;;5.45;;
40955;SDS011;26687;48.254;11.454;2022-09-24T14:52:34;5.93;;;5.43;;
40955;SDS011;26687;48.254;11.454;2022-09-24T14:55:40;5.28;;;4.78;;
40955;SDS011;26687;48.254;11.454;2022-09-24T14:58:40;6.82;;;5.10;;
40955;SDS011;26687;48.254;11.454;2022-09-24T15:01:41;5.80;;;5.38;;
40955;SDS011;26687;48.254;11.454;2022-09-24T15:04:45;5.97;;;5.47;;
40955;SDS011;26687;48.254;11.454;2022-09-24T15:07:46;6.13;;;5.63;;
40955;SDS011;26687;48.254;11.454;2022-09-24T15:10:53;7.07;;;6.38;;
40955;SDS011;26687;48.254;11.454;2022-09-24T15:14:00;5.93;;;5.28;;
40955;SDS011;26687;48.254;11.454;2022-09-24T15:17:09;5.90;;;5.40;;
40955;SDS011;26687;48.254;11.454;2022-09-24T15:20:10;8.40;;;6.65;;
40955;SDS011;26687;48.254;11.454;2022-09-24T15:23:10;7.07;;;6.50;;
40955;SDS011;26687;48.254;11.454;2022-09-24T15:26:11;6.13;;;5.63;;
40955;SDS011;26687;48.254;11.454;2022-09-24T15:29:15;6.70;;;6.13;;
40955;SDS011;26687;48.254;11.454;2022-09-24T15:32:17;5.90;;;5.40;;
40955;SDS011;26687;48.254;11.454;2022-09-24T15:35:17;5.60;;;5.10;;
40955;SDS011;26687;48.254;11.454;2022-09-24T15:38:18;12.30;;;11.00;;
40955;SDS011;26687;48.254;11.454;2022-09-24T15:41:18;11.90;;;10.90;;
40955;SDS011;26687;48.254;11.454;2022-09-24T15:44:20;7.87;;;7.27;;
40955;SDS011;26687;48.254;11.454;2022-09-24T15:47:21;8.48;;;7.78;;
40955;SDS011;26687;48.254;11.454;2022-09-24T15:50:22;8.50;;;7.80;;
40955;SDS011;26687;48.254;11.454;2022-09-24T15:53:25;8.27;;;7.57;;
40955;SDS011;26687;48.254;11.454;2022-09-24T15:59:27;9.13;;;8.27;;
40955;SDS011;26687;48.254;11.454;2022-09-24T16:02:28;7.38;;;6.78;;
40955;SDS011;26687;48.254;11.454;2022-09-24T16:08:30;9.10;;;8.00;;
40955;SDS011;26687;48.254;11.454;2022-09-24T16:11:31;11.48;;;8.95;;
40955;SDS011;26687;48.254;11.454;2022-09-24T16:14:31;11.15;;;7.32;;
40955;SDS011;26687;48.254;11.454;2022-09-24T16:17:31;6.90;;;6.30;;
40955;SDS011;26687;48.254;11.454;2022-09-24T16:20:32;7.33;;;6.57;;
40955;SDS011;26687;48.254;11.454;2022-09-24T16:23:32;7.43;;;6.75;;
40955;SDS011;26687;48.254;11.454;2022-09-24T16:26:32;8.10;;;7.28;;
40955;SDS011;26687;48.254;11.454;2022-09-24T16:29:34;6.95;;;6.25;;
40955;SDS011;26687;48.254;11.454;2022-09-24T16:32:34;6.40;;;5.80;;
40955;SDS011;26687;48.254;11.454;2022-09-24T16:35:34;6.10;;;5.50;;
40955;SDS011;26687;48.254;11.454;2022-09-24T16:38:35;6.80;;;6.10;;
40955;SDS011;26687;48.254;11.454;2022-09-24T16:41:35;6.80;;;6.10;;
40955;SDS011;26687;48.254;11.454;2022-09-24T16:44:36;6.78;;;5.88;;
40955;SDS011;26687;48.254;11.454;2022-09-24T16:47:37;6.40;;;5.80;;
40955;SDS011;26687;48.254;11.454;2022-09-24T16:50:37;7.60;;;6.80;;
40955;SDS011;26687;48.254;11.454;2022-09-24T16:53:38;8.45;;;7.75;;
40955;SDS011;26687;48.254;11.454;2022-09-24T16:56:38;7.73;;;7.13;;
40955;SDS011;26687;48.254;11.454;2022-09-24T16:59:39;8.47;;;7.77;;
40955;SDS011;26687;48.254;11.454;2022-09-24T17:02:39;9.02;;;8.23;;
40955;SDS011;26687;48.254;11.454;2022-09-24T17:05:39;10.37;;;9.37;;
40955;SDS011;26687;48.254;11.454;2022-09-24T17:08:39;10.88;;;9.77;;
40955;SDS011;26687;48.254;11.454;2022-09-24T17:11:58;10.82;;;9.48;;
40955;SDS011;26687;48.254;11.454;2022-09-24T17:14:58;10.60;;;9.60;;
40955;SDS011;26687;48.254;11.454;2022-09-24T17:18:00;11.40;;;10.25;;
40955;SDS011;26687;48.254;11.454;2022-09-24T17:21:05;20.33;;;18.17;;
40955;SDS011;26687;48.254;11.454;2022-09-24T17:24:05;20.58;;;18.38;;
40955;SDS011;26687;48.254;11.454;2022-09-24T17:27:06;13.85;;;12.55;;
40955;SDS011;26687;48.254;11.454;2022-09-24T17:30:06;14.85;;;13.45;;
40955;SDS011;26687;48.254;11.454;2022-09-24T17:33:08;12.20;;;11.20;;
40955;SDS011;26687;48.254;11.454;2022-09-24T17:36:08;11.73;;;10.63;;
40955;SDS011;26687;48.254;11.454;2022-09-24T17:39:10;13.20;;;11.90;;
40955;SDS011;26687;48.254;11.454;2022-09-24T17:42:11;12.35;;;11.18;;
40955;SDS011;26687;48.254;11.454;2022-09-24T17:45:11;11.73;;;10.73;;
40955;SDS011;26687;48.254;11.454;2022-09-24T17:48:12;11.05;;;10.07;;
40955;SDS011;26687;48.254;11.454;2022-09-24T17:51:14;11.10;;;10.00;;
40955;SDS011;26687;48.254;11.454;2022-09-24T17:54:15;11.63;;;10.63;;
40955;SDS011;26687;48.254;11.454;2022-09-24T17:57:17;12.07;;;10.95;;
40955;SDS011;26687;48.254;11.454;2022-09-24T18:00:18;12.38;;;11.38;;
40955;SDS011;26687;48.254;11.454;2022-09-24T18:03:18;13.88;;;12.48;;
40955;SDS011;26687;48.254;11.454;2022-09-24T18:06:18;12.30;;;11.07;;
40955;SDS011;26687;48.254;11.454;2022-09-24T18:09:18;10.48;;;9.57;;
40955;SDS011;26687;48.254;11.454;2022-09-24T18:12:19;10.30;;;9.40;;
40955;SDS011;26687;48.254;11.454;2022-09-24T18:15:19;10.82;;;9.77;;
40955;SDS011;26687;48.254;11.454;2022-09-24T18:18:19;11.98;;;10.77;;
40955;SDS011;26687;48.254;11.454;2022-09-24T18:21:21;12.10;;;11.07;;
40955;SDS011;26687;48.254;11.454;2022-09-24T18:24:21;11.73;;;10.75;;
40955;SDS011;26687;48.254;11.454;2022-09-24T18:27:22;10.68;;;9.75;;
40955;SDS011;26687;48.254;11.454;2022-09-24T18:30:22;10.25;;;9.43;;
40955;SDS011;26687;48.254;11.454;2022-09-24T18:33:23;14.05;;;12.85;;
40955;SDS011;26687;48.254;11.454;2022-09-24T18:36:24;15.25;;;13.95;;
40955;SDS011;26687;48.254;11.454;2022-09-24T18:39:27;14.00;;;12.70;;
40955;SDS011;26687;48.254;11.454;2022-09-24T18:42:27;15.20;;;13.60;;
40955;SDS011;26687;48.254;11.454;2022-09-24T18:45:27;25.77;;;18.67;;
40955;SDS011;26687;48.254;11.454;2022-09-24T18:48:28;48.70;;;35.58;;
40955;SDS011;26687;48.254;11.454;2022-09-24T18:51:29;49.50;;;35.87;;
40955;SDS011;26687;48.254;11.454;2022-09-24T18:54:30;28.35;;;21.80;;
40955;SDS011;26687;48.254;11.454;2022-09-24T18:57:30;14.82;;;11.98;;
40955;SDS011;26687;48.254;11.454;2022-09-24T19:00:30;11.20;;;10.20;;
40955;SDS011;26687;48.254;11.454;2022-09-24T19:03:50;11.07;;;9.98;;
40955;SDS011;26687;48.254;11.454;2022-09-24T19:06:50;11.35;;;10.20;;
40955;SDS011;26687;48.254;11.454;2022-09-24T19:09:50;12.38;;;11.20;;
40955;SDS011;26687;48.254;11.454;2022-09-24T19:12:51;12.88;;;11.77;;
40955;SDS011;26687;48.254;11.454;2022-09-24T19:15:54;13.07;;;11.87;;
40955;SDS011;26687;48.254;11.454;2022-09-24T19:18:54;13.30;;;12.07;;
40955;SDS011;26687;48.254;11.454;2022-09-24T19:21:54;14.55;;;13.30;;
40955;SDS011;26687;48.254;11.454;2022-09-24T19:24:55;14.73;;;13.32;;
40955;SDS011;26687;48.254;11.454;2022-09-24T19:27:55;13.98;;;12.77;;
40955;SDS011;26687;48.254;11.454;2022-09-24T19:30:56;13.35;;;12.25;;
40955;SDS011;26687;48.254;11.454;2022-09-24T19:33:57;14.15;;;12.88;;
40955;SDS011;26687;48.254;11.454;2022-09-24T19:36:59;14.77;;;13.48;;
40955;SDS011;26687;48.254;11.454;2022-09-24T19:39:59;12.10;;;11.00;;
40955;SDS011;26687;48.254;11.454;2022-09-24T19:42:59;12.53;;;11.40;;
40955;SDS011;26687;48.254;11.454;2022-09-24T19:46:03;12.00;;;11.00;;
40955;SDS011;26687;48.254;11.454;2022-09-24T19:49:03;13.13;;;12.02;;
40955;SDS011;26687;48.254;11.454;2022-09-24T19:52:05;13.55;;;12.15;;
40955;SDS011;26687;48.254;11.454;2022-09-24T19:55:06;13.88;;;12.48;;
40955;SDS011;26687;48.254;11.454;2022-09-24T19:58:06;13.10;;;12.00;;
40955;SDS011;26687;48.254;11.454;2022-09-24T20:01:07;13.07;;;11.88;;